Terminal Aerodrome Forecast
Issued by NWS Raleigh/Durham, NC

Home | Current Version | Previous Version | Text Only | Print | Product List | Glossary On
Versions: 1 2 3 4 5 6 7 8 9 10 11 12 13 14 15 16 17 18 19 20 21 22 23 24 25 26 27 28 29 30 31 32 33 34 35 36 37 38 39
000
FTUS42 KRAH 031740
TAFFAY
TAF
KFAY 031740Z 0318/0418 19006KT P6SM VCSH BKN050 BKN250
     FM040300 VRB05KT P6SM SCT070 BKN120
     FM040700 VRB03KT 2SM BR BKN006
     FM041300 21007KT P6SM FEW020 SCT060=

USA.gov is the U.S. government's official web portal to all federal, state and local government web resources and services.